Pago Pago, AS (96799)

12:29 PM SST on February 14, 2016 (GMT -1100)
Malaeimi | | Change Station
CLOSE
Current Station
Personal Weather Station
Location: Mesepa, WESTERN
Elevation: 217 ft
Nearby Weather Stations

Elev 217 ft 14.32 °S, 170.74 °W | Updated 1 second ago

Overcast
Overcast
89.8 °F
Feels Like 106 °F
N
3.0
Wind Variable Wind from NW
Gusts 3.0 mph

Today
High -- | Low -- °F
--% Chance of Precip.
Yesterday
High -- | Low -- °F
Precip. -- in
Pressure 30.04 in
Visibility 7.0 miles
Clouds Overcast 6000 ft
Heat Index 106 °F
Dew Point 79 °F
Humidity 71%
Rainfall 0.00 in
Snow Depth Not available.
6:20 AM 6:53 PM
Waxing Crescent, 46% visible
METAR PHKO 142253Z 00000KT 7SM OVC060 26/19 A3004 RMK AO2 SLP173 T02560194
Pressure 30.04 in
Visibility 7.0 miles
Clouds Overcast 6000 ft
Heat Index 106 °F
Dew Point 79 °F
Humidity 71%
Rainfall 0.00 in
Snow Depth Not available.
6:20 AM 6:53 PM
Waxing Crescent, 46% visible
METAR PHKO 142253Z 00000KT 7SM OVC060 26/19 A3004 RMK AO2 SLP173 T02560194

10-Day Weather Forecast

No radar image for this location.
×

Almanac

Astronomy

Feb. 14, 2016 Rise Set
Actual Time
Civil Twilight
Nautical Twilight
Astronomical Twilight
Moon
Length of Visible Light
Length of Day
Tomorrow will be .
, % of the Moon is Illuminated

Today's Extremes

State Highs State Lows

Community

WunderPhotos

Upload Photos

1,892,915 photos uploaded!

WunderBlog® & News

Nearby

Air Quality

  Air Quality AQ Index Pollutant
Not available.

Snow Depth

Station Depth Elevation

Earthquake Activity

City Distance Mag. Time & Date
Minimum magnitude displayed is 2.5.

Coastal Water Temperatures

Place Temperature

Stations

Nearby Weather Stations

Station Location Temp. Windchill Dew Point Humidity Wind Precip. Elev Updated Type
                   

Watches & Warnings

There are currently no watches in effect.